Time;durP1;ratioP1;P1;durP2;ratioP2;P2;SDS_P1;SDS_P2;PMS_P1;PMS_P2;Temp;Humidity;BMP_temperature;BMP_pressure;BME280_temperature;BME280_humidity;BME280_pressure;Samples;Min_cycle;Max_cycle;Signal;HPM_P1;HPM_P2
2023/02/14 00:01:47;;;;;;;;;;;;;;;;;;5000155;28;3490;-56
2023/02/14 00:04:12;;;;;;;;;;;;;;;;;;5008316;28;4655;-56
2023/02/14 00:06:38;;;;;;;;;;;;;;;;;;5005498;28;4654;-57
2023/02/14 00:09:03;;;;;;;;;;;;;;;;;;5003518;28;4577;-56
2023/02/14 00:11:29;;;;;;;;;;;;;;;;;;5009476;28;5463;-56
2023/02/14 00:16:38;;;;;;;;;;;;;;;;;;5002537;28;4953;-56
2023/02/14 00:19:03;;;;;;;;;;;;;;;;;;5010050;28;5027;-56
2023/02/14 00:21:34;;;;;;;;;;;;;;;;;;5004798;28;5174;-56
2023/02/14 00:24:00;;;;;;;;;;;;;;;;;;5008453;28;5181;-56
2023/02/14 00:26:25;;;;;;;;;;;;;;;;;;5007199;28;5201;-56
2023/02/14 00:28:50;;;;;;;;;;;;;;;;;;4998847;28;3482;-56
2023/02/14 00:31:16;;;;;;;;;;;;;;;;;;5005950;28;4990;-56
2023/02/14 00:33:41;;;;;;;;;;;;;;;;;;5008969;28;5273;-56
2023/02/14 00:36:06;;;;;;;;;;;;;;;;;;5006867;28;5086;-56
2023/02/14 00:38:32;;;;;;;;;;;;;;;;;;4995009;28;5026;-56
2023/02/14 00:40:57;;;;;;;;;;;;;;;;;;5006230;28;1106;-56
2023/02/14 00:43:22;;;;;;;;;;;;;;;;;;5003487;28;4556;-56
2023/02/14 00:45:48;;;;;;;;;;;;;;;;;;4990030;28;4444;-56
2023/02/14 00:48:13;;;;;;;;;;;;;;;;;;5007178;28;4999;-56
2023/02/14 00:50:38;;;;;;;;;;;;;;;;;;5009859;28;4691;-56
2023/02/14 00:53:03;;;;;;;;;;;;;;;;;;5004885;28;2600;-55
2023/02/14 00:55:29;;;;;;;;;;;;;;;;;;5013495;28;5114;-56
2023/02/14 00:57:54;;;;;;;;;;;;;;;;;;5004681;28;4499;-56
2023/02/14 01:00:19;;;;;;;;;;;;;;;;;;4996421;28;5061;-56
2023/02/14 01:02:45;;;;;;;;;;;;;;;;;;5010333;28;4539;-56
2023/02/14 01:05:10;;;;;;;;;;;;;;;;;;5016890;28;1258;-56
2023/02/14 01:07:35;;;;;;;;;;;;;;;;;;5011678;28;4665;-56
2023/02/14 01:10:00;;;;;;;;;;;;;;;;;;5009512;28;5053;-56
2023/02/14 01:12:26;;;;;;;;;;;;;;;;;;5011937;28;5110;-56
2023/02/14 01:14:51;;;;;;;;;;;;;;;;;;5011591;28;4708;-56
2023/02/14 01:17:16;;;;;;;;;;;;;;;;;;5000450;28;3222;-56
2023/02/14 01:19:42;;;;;;;;;;;;;;;;;;5008021;28;4893;-56
2023/02/14 01:22:07;;;;;;;;;;;;;;;;;;5005483;28;4903;-56
2023/02/14 01:24:32;;;;;;;;;;;;;;;;;;5002392;28;5063;-56
2023/02/14 01:26:57;;;;;;;;;;;;;;;;;;5002489;28;4658;-56
2023/02/14 01:29:23;;;;;;;;;;;;;;;;;;5006193;28;4468;-56
2023/02/14 01:31:48;;;;;;;;;;;;;;;;;;5008369;28;1233;-56
2023/02/14 01:34:13;;;;;;;;;;;;;;;;;;5009917;28;5199;-56
2023/02/14 01:36:39;;;;;;;;;;;;;;;;;;5002284;28;5302;-56
2023/02/14 01:39:09;;;;;;;;;;;;;;;;;;5001847;28;5092;-56
2023/02/14 01:41:34;;;;;;;;;;;;;;;;;;5008764;28;5102;-56
2023/02/14 01:44:04;;;;;;;;;;;;;;;;;;5011938;28;1222;-56
2023/02/14 01:46:36;;;;;;;;;;;;;;;;;;5008249;28;5072;-55
2023/02/14 01:49:06;;;;;;;;;;;;;;;;;;5002667;28;5039;-56
2023/02/14 01:51:31;;;;;;;;;;;;;;;;;;5009128;28;4971;-55
2023/02/14 01:53:56;;;;;;;;;;;;;;;;;;5009878;28;5177;-57
2023/02/14 01:56:27;;;;;;;;;;;;;;;;;;4995105;28;4716;-55
2023/02/14 01:58:52;;;;;;;;;;;;;;;;;;5001857;28;4901;-57
2023/02/14 02:01:18;;;;;;;;;;;;;;;;;;5019169;28;5277;-54
2023/02/14 02:03:44;;;;;;;;;;;;;;;;;;4997904;28;4498;-57
2023/02/14 02:06:16;;;;;;;;;;;;;;;;;;5006374;28;4916;-57
2023/02/14 02:08:43;;;;;;;;;;;;;;;;;;5007087;28;5079;-57
2023/02/14 02:11:08;;;;;;;;;;;;;;;;;;5008697;28;1123;-57
2023/02/14 02:13:33;;;;;;;;;;;;;;;;;;5009522;28;4810;-57
2023/02/14 02:16:07;;;;;;;;;;;;;;;;;;5004619;28;5044;-57
2023/02/14 02:18:49;;;;;;;;;;;;;;;;;;5002600;28;5251;-57
2023/02/14 02:21:21;;;;;;;;;;;;;;;;;;4993430;28;5185;-57
2023/02/14 02:23:46;;;;;;;;;;;;;;;;;;5010546;28;5254;-57
2023/02/14 02:26:23;;;;;;;;;;;;;;;;;;5011324;28;1246;-57
2023/02/14 02:28:54;;;;;;;;;;;;;;;;;;5010574;28;4629;-58
2023/02/14 02:31:38;;;;;;;;;;;;;;;;;;5005425;28;5027;-58
2023/02/14 02:34:03;;;;;;;;;;;;;;;;;;5003152;28;4661;-57
2023/02/14 02:36:34;;;;;;;;;;;;;;;;;;5004832;28;5059;-56
2023/02/14 02:39:21;;;;;;;;;;;;;;;;;;4988393;28;5159;-55
2023/02/14 02:41:49;;;;;;;;;;;;;;;;;;5002028;28;5161;-56
2023/02/14 02:44:20;;;;;;;;;;;;;;;;;;5000883;28;3320;-56
2023/02/14 02:46:54;;;;;;;;;;;;;;;;;;4994916;28;5099;-56
2023/02/14 02:55:04;;;;;;;;;;;;;;;;;;5003765;28;5073;-56
2023/02/14 02:57:31;;;;;;;;;;;;;;;;;;5003534;28;4524;-57
2023/02/14 02:59:56;;;;;;;;;;;;;;;;;;5004508;28;5144;-56
2023/02/14 03:02:23;;;;;;;;;;;;;;;;;;5002515;28;4533;-54
2023/02/14 03:04:52;;;;;;;;;;;;;;;;;;5006209;28;3893;-56
2023/02/14 03:07:39;;;;;;;;;;;;;;;;;;5001404;28;5011;-56
2023/02/14 03:10:10;;;;;;;;;;;;;;;;;;5006252;28;4844;-56
2023/02/14 03:12:39;;;;;;;;;;;;;;;;;;4992373;28;5040;-56
2023/02/14 03:15:04;;;;;;;;;;;;;;;;;;4994305;28;4999;-56
2023/02/14 03:17:36;;;;;;;;;;;;;;;;;;4998439;28;4982;-56
2023/02/14 03:20:16;;;;;;;;;;;;;;;;;;5002438;28;3914;-56
2023/02/14 03:22:57;;;;;;;;;;;;;;;;;;4996091;28;4948;-56
2023/02/14 03:25:25;;;;;;;;;;;;;;;;;;4997051;28;4924;-56
2023/02/14 03:27:57;;;;;;;;;;;;;;;;;;4995345;28;4641;-56
2023/02/14 03:30:22;;;;;;;;;;;;;;;;;;4976688;28;6023;-56
2023/02/14 03:32:52;;;;;;;;;;;;;;;;;;4995191;28;5055;-57
2023/02/14 03:35:24;;;;;;;;;;;;;;;;;;5007206;28;3594;-56
2023/02/14 03:38:08;;;;;;;;;;;;;;;;;;5004342;28;4387;-56
2023/02/14 03:40:33;;;;;;;;;;;;;;;;;;5002893;28;4801;-54
2023/02/14 03:43:04;;;;;;;;;;;;;;;;;;4999371;28;4966;-56
2023/02/14 03:45:36;;;;;;;;;;;;;;;;;;4995374;28;4610;-56
2023/02/14 03:48:03;;;;;;;;;;;;;;;;;;4993451;28;4567;-56
2023/02/14 03:50:28;;;;;;;;;;;;;;;;;;4989845;28;5193;-56
2023/02/14 03:52:53;;;;;;;;;;;;;;;;;;5011146;28;1098;-56
2023/02/14 03:55:21;;;;;;;;;;;;;;;;;;5011332;28;5092;-56
2023/02/14 03:57:49;;;;;;;;;;;;;;;;;;4989229;28;5351;-56
2023/02/14 04:00:14;;;;;;;;;;;;;;;;;;5012451;28;5233;-56
2023/02/14 04:02:41;;;;;;;;;;;;;;;;;;5013063;28;5203;-56
2023/02/14 04:05:18;;;;;;;;;;;;;;;;;;5012908;28;1078;-56
2023/02/14 04:07:47;;;;;;;;;;;;;;;;;;4990821;28;5033;-55
2023/02/14 04:10:13;;;;;;;;;;;;;;;;;;5006381;28;5171;-56
2023/02/14 04:12:38;;;;;;;;;;;;;;;;;;5010637;28;5000;-56
2023/02/14 04:15:04;;;;;;;;;;;;;;;;;;5009564;28;4793;-56
2023/02/14 04:20:13;;;;;;;;;;;;;;;;;;5008913;28;1150;-56
2023/02/14 04:22:38;;;;;;;;;;;;;;;;;;4987805;28;4447;-56
2023/02/14 04:25:04;;;;;;;;;;;;;;;;;;4998935;28;5006;-56
2023/02/14 04:27:29;;;;;;;;;;;;;;;;;;5003298;28;5151;-56
2023/02/14 04:29:54;;;;;;;;;;;;;;;;;;5003594;28;5049;-56
2023/02/14 04:32:20;;;;;;;;;;;;;;;;;;5006035;28;3271;-56
2023/02/14 04:34:45;;;;;;;;;;;;;;;;;;5002492;28;4930;-56
2023/02/14 04:37:11;;;;;;;;;;;;;;;;;;5012422;28;4936;-56
2023/02/14 04:39:36;;;;;;;;;;;;;;;;;;5007764;28;5070;-56
2023/02/14 04:42:02;;;;;;;;;;;;;;;;;;5006998;28;5036;-56
2023/02/14 04:44:27;;;;;;;;;;;;;;;;;;5010942;28;4493;-56
2023/02/14 04:46:52;;;;;;;;;;;;;;;;;;5005541;28;3554;-56
2023/02/14 04:49:17;;;;;;;;;;;;;;;;;;4996266;28;5159;-56
2023/02/14 04:51:43;;;;;;;;;;;;;;;;;;5005737;28;4522;-56
2023/02/14 04:54:08;;;;;;;;;;;;;;;;;;5004149;28;4761;-56
2023/02/14 04:56:33;;;;;;;;;;;;;;;;;;5004238;28;4488;-56
2023/02/14 04:58:59;;;;;;;;;;;;;;;;;;5007946;28;4233;-57
2023/02/14 05:01:24;;;;;;;;;;;;;;;;;;5013532;28;4905;-56
2023/02/14 05:03:49;;;;;;;;;;;;;;;;;;5007884;28;4531;-56
2023/02/14 05:06:14;;;;;;;;;;;;;;;;;;5008767;28;5117;-56
2023/02/14 05:08:40;;;;;;;;;;;;;;;;;;5010662;28;5125;-56
2023/02/14 05:11:05;;;;;;;;;;;;;;;;;;5012343;28;1113;-54
2023/02/14 05:13:33;;;;;;;;;;;;;;;;;;5009305;28;4568;-56
2023/02/14 05:15:58;;;;;;;;;;;;;;;;;;5011694;28;5492;-56
2023/02/14 05:18:24;;;;;;;;;;;;;;;;;;5006893;28;4948;-56
2023/02/14 05:20:49;;;;;;;;;;;;;;;;;;5003365;28;5066;-56
2023/02/14 05:23:15;;;;;;;;;;;;;;;;;;5000921;28;1480;-56
2023/02/14 05:25:40;;;;;;;;;;;;;;;;;;5001118;28;4396;-55
2023/02/14 05:28:06;;;;;;;;;;;;;;;;;;5005779;28;5127;-56
2023/02/14 05:30:31;;;;;;;;;;;;;;;;;;5007162;28;4482;-56
2023/02/14 05:32:56;;;;;;;;;;;;;;;;;;5009663;28;5066;-56
2023/02/14 05:35:21;;;;;;;;;;;;;;;;;;5002253;28;5255;-49
2023/02/14 05:37:47;;;;;;;;;;;;;;;;;;5002529;28;1267;-56
2023/02/14 05:40:14;;;;;;;;;;;;;;;;;;5007180;28;4849;-57
2023/02/14 05:42:39;;;;;;;;;;;;;;;;;;5007987;28;5047;-57
2023/02/14 05:45:04;;;;;;;;;;;;;;;;;;5004023;28;4567;-57
2023/02/14 05:47:30;;;;;;;;;;;;;;;;;;5002327;28;4621;-57
2023/02/14 05:49:55;;;;;;;;;;;;;;;;;;4985017;28;1101;-57
2023/02/14 05:52:20;;;;;;;;;;;;;;;;;;4992924;28;4658;-55
2023/02/14 05:54:45;;;;;;;;;;;;;;;;;;4990947;28;4596;-56
2023/02/14 05:57:11;;;;;;;;;;;;;;;;;;4988789;28;5024;-55
2023/02/14 05:59:36;;;;;;;;;;;;;;;;;;4985829;28;4942;-56
2023/02/14 06:02:01;;;;;;;;;;;;;;;;;;4980493;28;3442;-55
2023/02/14 06:04:26;;;;;;;;;;;;;;;;;;4979000;28;4475;-55
2023/02/14 06:06:52;;;;;;;;;;;;;;;;;;4983280;28;5174;-56
2023/02/14 06:09:18;;;;;;;;;;;;;;;;;;4977819;28;4951;-56
2023/02/14 06:11:43;;;;;;;;;;;;;;;;;;4985947;28;5272;-56
2023/02/14 06:14:09;;;;;;;;;;;;;;;;;;4986045;28;3205;-56
2023/02/14 06:16:34;;;;;;;;;;;;;;;;;;4982916;28;5062;-57
2023/02/14 06:18:59;;;;;;;;;;;;;;;;;;4982133;28;4826;-57
2023/02/14 06:21:25;;;;;;;;;;;;;;;;;;4982016;28;5012;-57
2023/02/14 06:23:50;;;;;;;;;;;;;;;;;;4979776;28;4514;-55
2023/02/14 06:26:16;;;;;;;;;;;;;;;;;;4989109;28;3560;-57
2023/02/14 06:28:41;;;;;;;;;;;;;;;;;;4986513;28;5127;-57
2023/02/14 06:31:07;;;;;;;;;;;;;;;;;;4977682;28;5277;-57
2023/02/14 06:33:32;;;;;;;;;;;;;;;;;;4983746;28;5071;-57
2023/02/14 06:35:57;;;;;;;;;;;;;;;;;;4990551;28;5018;-57
2023/02/14 06:38:22;;;;;;;;;;;;;;;;;;4989717;28;5173;-56
2023/02/14 06:40:47;;;;;;;;;;;;;;;;;;4985449;28;3336;-57
2023/02/14 06:43:13;;;;;;;;;;;;;;;;;;4976004;28;4584;-57
2023/02/14 06:45:42;;;;;;;;;;;;;;;;;;4980435;28;5585;-55
2023/02/14 06:48:07;;;;;;;;;;;;;;;;;;4987952;28;5238;-57
2023/02/14 06:50:32;;;;;;;;;;;;;;;;;;5010032;28;4995;-57
2023/02/14 06:52:58;;;;;;;;;;;;;;;;;;4987979;28;3495;-57
2023/02/14 06:55:23;;;;;;;;;;;;;;;;;;5004059;28;4971;-57
2023/02/14 06:57:49;;;;;;;;;;;;;;;;;;4989091;28;5179;-57
2023/02/14 07:00:15;;;;;;;;;;;;;;;;;;5000691;28;5167;-57
2023/02/14 07:02:40;;;;;;;;;;;;;;;;;;4998347;28;4988;-57
2023/02/14 07:05:05;;;;;;;;;;;;;;;;;;5002227;28;3293;-57
2023/02/14 07:07:31;;;;;;;;;;;;;;;;;;5001465;28;4618;-57
2023/02/14 07:09:56;;;;;;;;;;;;;;;;;;5009313;28;5018;-57
2023/02/14 07:12:21;;;;;;;;;;;;;;;;;;5004435;28;4906;-57
2023/02/14 07:14:46;;;;;;;;;;;;;;;;;;5003687;28;5181;-56
2023/02/14 07:17:12;;;;;;;;;;;;;;;;;;5008475;28;1366;-56
2023/02/14 07:19:37;;;;;;;;;;;;;;;;;;4998890;28;4904;-56
2023/02/14 07:22:02;;;;;;;;;;;;;;;;;;5005064;28;4572;-56
2023/02/14 07:24:28;;;;;;;;;;;;;;;;;;5009037;28;4492;-57
2023/02/14 07:26:53;;;;;;;;;;;;;;;;;;5003880;28;5098;-57
2023/02/14 07:29:18;;;;;;;;;;;;;;;;;;5000135;28;3464;-55
2023/02/14 07:31:43;;;;;;;;;;;;;;;;;;4988598;28;4796;-57
2023/02/14 07:34:09;;;;;;;;;;;;;;;;;;4975507;28;4523;-56
2023/02/14 07:36:35;;;;;;;;;;;;;;;;;;4974890;28;5147;-57
2023/02/14 07:39:01;;;;;;;;;;;;;;;;;;4986517;28;5046;-57
2023/02/14 07:41:26;;;;;;;;;;;;;;;;;;4984019;28;4592;-57
2023/02/14 07:43:51;;;;;;;;;;;;;;;;;;5005731;28;3229;-57
2023/02/14 07:46:17;;;;;;;;;;;;;;;;;;4999806;28;5007;-56
2023/02/14 07:48:42;;;;;;;;;;;;;;;;;;5004521;28;4628;-57
2023/02/14 07:51:07;;;;;;;;;;;;;;;;;;5004442;28;4976;-57
2023/02/14 07:53:33;;;;;;;;;;;;;;;;;;5005208;28;5217;-56
2023/02/14 07:55:58;;;;;;;;;;;;;;;;;;5008464;28;3333;-57
2023/02/14 07:58:23;;;;;;;;;;;;;;;;;;5001959;28;4592;-58
2023/02/14 08:00:49;;;;;;;;;;;;;;;;;;4998170;28;5010;-58
2023/02/14 08:03:15;;;;;;;;;;;;;;;;;;4998201;28;5094;-57
2023/02/14 08:05:40;;;;;;;;;;;;;;;;;;4990925;28;4743;-56
2023/02/14 08:08:05;;;;;;;;;;;;;;;;;;5013498;28;3222;-56
2023/02/14 08:10:31;;;;;;;;;;;;;;;;;;5006908;28;4585;-56
2023/02/14 08:12:59;;;;;;;;;;;;;;;;;;4983613;28;4478;-57
2023/02/14 08:18:12;;;;;;;;;;;;;;;;;;4997592;28;4845;-55
2023/02/14 08:20:38;;;;;;;;;;;;;;;;;;4995411;28;5068;-57
2023/02/14 08:23:03;;;;;;;;;;;;;;;;;;4998401;28;3522;-56
2023/02/14 08:25:28;;;;;;;;;;;;;;;;;;4998854;28;5432;-57
2023/02/14 08:27:56;;;;;;;;;;;;;;;;;;5002227;28;5492;-57
2023/02/14 08:30:21;;;;;;;;;;;;;;;;;;5011571;28;4504;-56
2023/02/14 08:32:47;;;;;;;;;;;;;;;;;;5002298;28;4561;-57
2023/02/14 08:35:12;;;;;;;;;;;;;;;;;;4997936;28;3591;-56
2023/02/14 08:37:37;;;;;;;;;;;;;;;;;;4987605;28;5346;-57
2023/02/14 08:40:02;;;;;;;;;;;;;;;;;;5001835;28;4564;-57
2023/02/14 08:42:28;;;;;;;;;;;;;;;;;;5003200;28;5118;-56
2023/02/14 08:44:54;;;;;;;;;;;;;;;;;;5004002;28;5199;-57
2023/02/14 08:47:19;;;;;;;;;;;;;;;;;;5007252;28;3540;-57
2023/02/14 08:49:44;;;;;;;;;;;;;;;;;;5001351;28;4986;-57
2023/02/14 08:52:09;;;;;;;;;;;;;;;;;;5002143;28;4603;-65
2023/02/14 08:54:35;;;;;;;;;;;;;;;;;;5001107;28;4531;-58
2023/02/14 08:57:02;;;;;;;;;;;;;;;;;;5004332;28;4736;-56
2023/02/14 08:59:27;;;;;;;;;;;;;;;;;;5007546;28;5130;-54
2023/02/14 09:01:52;;;;;;;;;;;;;;;;;;5007033;28;3403;-55
2023/02/14 09:04:18;;;;;;;;;;;;;;;;;;4985595;28;5093;-56
2023/02/14 09:06:43;;;;;;;;;;;;;;;;;;4969750;28;4488;-54
2023/02/14 09:09:08;;;;;;;;;;;;;;;;;;4975232;28;4520;-56
2023/02/14 09:11:33;;;;;;;;;;;;;;;;;;5001247;28;4662;-56
2023/02/14 09:13:59;;;;;;;;;;;;;;;;;;5003256;28;3383;-61
2023/02/14 09:16:24;;;;;;;;;;;;;;;;;;4997050;28;5072;-54
2023/02/14 09:18:50;;;;;;;;;;;;;;;;;;4984845;28;5236;-56
2023/02/14 09:21:16;;;;;;;;;;;;;;;;;;5003172;28;5110;-56
2023/02/14 09:23:41;;;;;;;;;;;;;;;;;;5000424;28;4534;-56
2023/02/14 09:26:07;;;;;;;;;;;;;;;;;;4992965;28;3364;-56
2023/02/14 09:28:33;;;;;;;;;;;;;;;;;;4977191;28;5053;-56
2023/02/14 09:30:58;;;;;;;;;;;;;;;;;;4993466;28;4901;-56
2023/02/14 09:33:27;;;;;;;;;;;;;;;;;;4986039;28;5010;-55
2023/02/14 09:35:53;;;;;;;;;;;;;;;;;;5001658;28;5138;-56
2023/02/14 09:38:18;;;;;;;;;;;;;;;;;;5005536;28;1203;-55
2023/02/14 09:40:44;;;;;;;;;;;;;;;;;;4996441;28;5023;-55
2023/02/14 09:43:09;;;;;;;;;;;;;;;;;;4992321;28;4528;-56
2023/02/14 09:45:34;;;;;;;;;;;;;;;;;;5004032;28;4733;-55
2023/02/14 09:48:09;;;;;;;;;;;;;;;;;;4995208;28;5166;-57
2023/02/14 09:50:46;;;;;;;;;;;;;;;;;;4998509;28;5582;-54
2023/02/14 09:53:14;;;;;;;;;;;;;;;;;;4993764;28;3404;-56
2023/02/14 09:55:46;;;;;;;;;;;;;;;;;;4995887;28;4914;-55
2023/02/14 09:58:16;;;;;;;;;;;;;;;;;;4969992;28;5078;-56
2023/02/14 10:00:44;;;;;;;;;;;;;;;;;;4997206;28;5016;-56
2023/02/14 10:03:12;;;;;;;;;;;;;;;;;;5003444;28;4835;-56
2023/02/14 10:05:40;;;;;;;;;;;;;;;;;;4995625;28;4985;-56
2023/02/14 10:08:14;;;;;;;;;;;;;;;;;;4976854;28;3459;-57
2023/02/14 10:10:40;;;;;;;;;;;;;;;;;;4984194;28;5219;-60
2023/02/14 10:13:11;;;;;;;;;;;;;;;;;;4973291;28;5020;-60
2023/02/14 10:15:38;;;;;;;;;;;;;;;;;;4990556;28;5242;-60
2023/02/14 10:18:13;;;;;;;;;;;;;;;;;;4985858;28;4784;-61
2023/02/14 10:20:46;;;;;;;;;;;;;;;;;;4974525;28;5078;-63
2023/02/14 10:23:14;;;;;;;;;;;;;;;;;;4988156;28;3591;-64
2023/02/14 10:25:41;;;;;;;;;;;;;;;;;;4985826;28;5023;-63
2023/02/14 10:28:07;;;;;;;;;;;;;;;;;;4973918;28;4496;-64
2023/02/14 10:30:35;;;;;;;;;;;;;;;;;;4987917;28;4730;-60
2023/02/14 10:33:16;;;;;;;;;;;;;;;;;;4972679;28;4615;-60
2023/02/14 10:35:48;;;;;;;;;;;;;;;;;;4974541;28;5333;-63
2023/02/14 10:38:26;;;;;;;;;;;;;;;;;;4989392;28;3454;-62
2023/02/14 10:40:51;;;;;;;;;;;;;;;;;;4991241;28;4602;-61
2023/02/14 10:43:40;;;;;;;;;;;;;;;;;;4990223;28;5075;-61
2023/02/14 10:46:12;;;;;;;;;;;;;;;;;;4986355;28;4927;-59
2023/02/14 10:48:37;;;;;;;;;;;;;;;;;;4987230;28;4530;-60
2023/02/14 10:51:04;;;;;;;;;;;;;;;;;;4989784;28;5040;-58
2023/02/14 10:53:55;;;;;;;;;;;;;;;;;;4985796;28;5143;-61
2023/02/14 10:56:25;;;;;;;;;;;;;;;;;;4983680;28;3442;-59
2023/02/14 10:58:51;;;;;;;;;;;;;;;;;;5003864;28;5038;-61
2023/02/14 11:01:16;;;;;;;;;;;;;;;;;;5000914;28;5013;-57
2023/02/14 11:04:05;;;;;;;;;;;;;;;;;;4985006;28;4577;-54
2023/02/14 11:06:30;;;;;;;;;;;;;;;;;;4999107;28;4631;-64
2023/02/14 11:08:55;;;;;;;;;;;;;;;;;;5006817;28;4543;-68
2023/02/14 11:11:24;;;;;;;;;;;;;;;;;;5007568;28;3073;-63
2023/02/14 11:13:49;;;;;;;;;;;;;;;;;;4998251;28;4948;-62
2023/02/14 11:16:18;;;;;;;;;;;;;;;;;;5003714;28;5140;-67
2023/02/14 11:18:44;;;;;;;;;;;;;;;;;;4995226;28;5174;-65
2023/02/14 11:21:16;;;;;;;;;;;;;;;;;;5004388;28;4663;-66
2023/02/14 11:23:47;;;;;;;;;;;;;;;;;;4986790;28;5235;-61
2023/02/14 11:26:25;;;;;;;;;;;;;;;;;;4990938;28;3525;-60
2023/02/14 11:29:09;;;;;;;;;;;;;;;;;;5001252;28;4403;-63
2023/02/14 11:31:35;;;;;;;;;;;;;;;;;;5000096;28;5000;-63
2023/02/14 11:34:01;;;;;;;;;;;;;;;;;;5002511;28;5018;-63
2023/02/14 11:36:26;;;;;;;;;;;;;;;;;;5001648;28;5099;-55
2023/02/14 11:39:05;;;;;;;;;;;;;;;;;;4985601;28;5133;-56
2023/02/14 11:41:50;;;;;;;;;;;;;;;;;;5002504;28;5033;-66
2023/02/14 11:44:21;;;;;;;;;;;;;;;;;;4997998;28;3427;-66
2023/02/14 11:46:46;;;;;;;;;;;;;;;;;;4999005;28;5078;-66
2023/02/14 11:49:23;;;;;;;;;;;;;;;;;;4999785;28;5172;-64
2023/02/14 11:51:48;;;;;;;;;;;;;;;;;;4970808;28;5128;-58
2023/02/14 11:54:24;;;;;;;;;;;;;;;;;;4973679;28;5119;-58
2023/02/14 11:56:59;;;;;;;;;;;;;;;;;;4976797;28;4645;-65
2023/02/14 11:59:27;;;;;;;;;;;;;;;;;;5001479;28;5047;-60
2023/02/14 12:01:52;;;;;;;;;;;;;;;;;;4992123;28;3477;-62
2023/02/14 12:04:18;;;;;;;;;;;;;;;;;;5000715;28;5079;-60
2023/02/14 12:06:44;;;;;;;;;;;;;;;;;;5011608;28;5077;-58
2023/02/14 12:09:29;;;;;;;;;;;;;;;;;;4998977;28;5115;-60
2023/02/14 12:11:55;;;;;;;;;;;;;;;;;;5002203;28;5141;-65
2023/02/14 12:14:20;;;;;;;;;;;;;;;;;;5004938;28;3632;-60
2023/02/14 12:17:06;;;;;;;;;;;;;;;;;;5004079;28;4444;-63
2023/02/14 12:19:40;;;;;;;;;;;;;;;;;;4994797;28;4525;-64
2023/02/14 12:22:06;;;;;;;;;;;;;;;;;;4997579;28;4491;-63
2023/02/14 12:24:35;;;;;;;;;;;;;;;;;;5004797;28;5052;-63
2023/02/14 12:27:03;;;;;;;;;;;;;;;;;;5001385;28;5140;-66
2023/02/14 12:29:31;;;;;;;;;;;;;;;;;;4999153;28;5060;-62
2023/02/14 12:31:58;;;;;;;;;;;;;;;;;;4997635;28;3434;-64
2023/02/14 12:34:24;;;;;;;;;;;;;;;;;;5008977;28;1295;-60
2023/02/14 12:36:52;;;;;;;;;;;;;;;;;;4984272;28;6238;-63
2023/02/14 12:39:26;;;;;;;;;;;;;;;;;;5008294;28;5580;-63
2023/02/14 12:41:51;;;;;;;;;;;;;;;;;;5002873;28;5291;-65
2023/02/14 12:44:32;;;;;;;;;;;;;;;;;;5007765;28;5346;-63
2023/02/14 12:47:07;;;;;;;;;;;;;;;;;;5010877;28;3170;-64
2023/02/14 12:49:41;;;;;;;;;;;;;;;;;;4998660;28;6511;-64
2023/02/14 12:52:25;;;;;;;;;;;;;;;;;;4994693;28;5263;-64
2023/02/14 12:54:53;;;;;;;;;;;;;;;;;;5003252;28;5247;-57
2023/02/14 12:57:26;;;;;;;;;;;;;;;;;;5012785;28;5301;-56
2023/02/14 12:59:51;;;;;;;;;;;;;;;;;;4999768;28;5439;-57
2023/02/14 13:02:34;;;;;;;;;;;;;;;;;;5006992;28;5062;-58
2023/02/14 13:05:00;;;;;;;;;;;;;;;;;;5000996;28;5061;-56
2023/02/14 13:07:28;;;;;;;;;;;;;;;;;;5005102;28;5317;-56
2023/02/14 13:09:57;;;;;;;;;;;;;;;;;;4997332;28;3801;-53
2023/02/14 13:12:41;;;;;;;;;;;;;;;;;;4998924;28;5038;-54
2023/02/14 13:15:22;;;;;;;;;;;;;;;;;;5005927;28;5228;-57
2023/02/14 13:18:06;;;;;;;;;;;;;;;;;;5004455;28;4472;-57
2023/02/14 13:20:42;;;;;;;;;;;;;;;;;;5014378;28;4459;-58
2023/02/14 13:23:13;;;;;;;;;;;;;;;;;;4982335;28;5135;-56
2023/02/14 13:25:40;;;;;;;;;;;;;;;;;;5008594;28;5472;-55
2023/02/14 13:28:06;;;;;;;;;;;;;;;;;;4998189;28;5120;-54
2023/02/14 13:30:35;;;;;;;;;;;;;;;;;;4997154;28;1242;-59
2023/02/14 13:33:02;;;;;;;;;;;;;;;;;;5005037;28;4479;-58
2023/02/14 13:35:27;;;;;;;;;;;;;;;;;;4993804;28;5187;-61
2023/02/14 13:37:54;;;;;;;;;;;;;;;;;;4984960;28;5082;-58
2023/02/14 13:40:19;;;;;;;;;;;;;;;;;;5000435;28;5131;-57
2023/02/14 13:42:51;;;;;;;;;;;;;;;;;;5006592;28;3505;-57
2023/02/14 13:45:39;;;;;;;;;;;;;;;;;;5008078;28;5102;-57
2023/02/14 13:48:08;;;;;;;;;;;;;;;;;;4996959;28;4917;-57
2023/02/14 13:50:37;;;;;;;;;;;;;;;;;;4993514;28;5162;-56
2023/02/14 13:53:02;;;;;;;;;;;;;;;;;;5003505;28;5135;-58
2023/02/14 13:55:30;;;;;;;;;;;;;;;;;;5005296;28;4563;-59
2023/02/14 13:58:03;;;;;;;;;;;;;;;;;;5009414;28;5280;-55
2023/02/14 14:00:35;;;;;;;;;;;;;;;;;;5001032;28;5017;-58
2023/02/14 14:03:00;;;;;;;;;;;;;;;;;;4996965;28;4964;-58
2023/02/14 14:05:28;;;;;;;;;;;;;;;;;;4997446;28;5090;-59
2023/02/14 14:08:12;;;;;;;;;;;;;;;;;;5007101;28;5703;-58
2023/02/14 14:10:43;;;;;;;;;;;;;;;;;;5003381;28;5090;-59
2023/02/14 14:13:08;;;;;;;;;;;;;;;;;;4998357;28;5144;-59
2023/02/14 14:15:34;;;;;;;;;;;;;;;;;;5010954;28;3608;-58
2023/02/14 14:18:11;;;;;;;;;;;;;;;;;;5005341;28;5128;-58
2023/02/14 14:20:39;;;;;;;;;;;;;;;;;;4995709;28;5080;-59
2023/02/14 14:23:22;;;;;;;;;;;;;;;;;;4998890;28;4568;-58
2023/02/14 14:25:47;;;;;;;;;;;;;;;;;;4998223;28;5035;-58
2023/02/14 14:28:19;;;;;;;;;;;;;;;;;;5000050;28;4971;-56
2023/02/14 14:30:44;;;;;;;;;;;;;;;;;;5000159;28;3510;-56
2023/02/14 14:33:19;;;;;;;;;;;;;;;;;;4994437;28;5102;-55
2023/02/14 14:35:51;;;;;;;;;;;;;;;;;;5000376;28;5139;-58
2023/02/14 14:38:16;;;;;;;;;;;;;;;;;;5003977;28;5078;-57
2023/02/14 14:40:44;;;;;;;;;;;;;;;;;;5009027;28;4981;-58
2023/02/14 14:43:13;;;;;;;;;;;;;;;;;;5002038;28;5113;-58
2023/02/14 14:45:40;;;;;;;;;;;;;;;;;;4999732;28;3536;-59
2023/02/14 14:48:11;;;;;;;;;;;;;;;;;;4999002;28;5025;-59
2023/02/14 14:50:38;;;;;;;;;;;;;;;;;;4985753;28;5199;-55
2023/02/14 14:53:09;;;;;;;;;;;;;;;;;;4969387;28;5151;-58
2023/02/14 14:55:35;;;;;;;;;;;;;;;;;;5005530;28;5000;-55
2023/02/14 14:58:05;;;;;;;;;;;;;;;;;;4982625;28;5197;-59
2023/02/14 15:00:37;;;;;;;;;;;;;;;;;;4996612;28;5090;-59
2023/02/14 15:03:06;;;;;;;;;;;;;;;;;;5000368;28;5130;-60
2023/02/14 15:05:35;;;;;;;;;;;;;;;;;;4999246;28;5105;-53
2023/02/14 15:08:20;;;;;;;;;;;;;;;;;;4989608;28;4523;-57
2023/02/14 15:10:46;;;;;;;;;;;;;;;;;;4998477;28;5096;-58
2023/02/14 15:15:56;;;;;;;;;;;;;;;;;;4994496;28;3640;-51
2023/02/14 15:18:21;;;;;;;;;;;;;;;;;;4995866;28;4496;-57
2023/02/14 15:20:47;;;;;;;;;;;;;;;;;;4993685;28;5163;-55
2023/02/14 15:23:16;;;;;;;;;;;;;;;;;;4992997;28;5035;-58
2023/02/14 15:25:43;;;;;;;;;;;;;;;;;;4993209;28;5370;-58
2023/02/14 15:28:10;;;;;;;;;;;;;;;;;;5011359;28;4912;-57
2023/02/14 15:30:37;;;;;;;;;;;;;;;;;;4997882;28;3530;-58
2023/02/14 15:33:03;;;;;;;;;;;;;;;;;;4998989;28;4480;-57
2023/02/14 15:35:33;;;;;;;;;;;;;;;;;;5000780;28;4534;-58
2023/02/14 15:37:59;;;;;;;;;;;;;;;;;;4998354;28;5125;-58
2023/02/14 15:40:27;;;;;;;;;;;;;;;;;;4999803;28;5117;-57
2023/02/14 15:42:57;;;;;;;;;;;;;;;;;;4996576;28;3609;-58
2023/02/14 15:45:28;;;;;;;;;;;;;;;;;;5000795;28;5061;-59
2023/02/14 15:47:54;;;;;;;;;;;;;;;;;;4997535;28;4658;-57
2023/02/14 15:50:27;;;;;;;;;;;;;;;;;;5003249;28;5046;-55
2023/02/14 15:52:55;;;;;;;;;;;;;;;;;;5001001;28;5445;-57
2023/02/14 15:55:21;;;;;;;;;;;;;;;;;;4991926;28;5223;-55
2023/02/14 15:57:53;;;;;;;;;;;;;;;;;;4996285;28;3346;-55
2023/02/14 16:00:20;;;;;;;;;;;;;;;;;;4999052;28;4868;-56
2023/02/14 16:02:47;;;;;;;;;;;;;;;;;;5004477;28;5055;-57
2023/02/14 16:05:13;;;;;;;;;;;;;;;;;;4984516;28;4947;-57
2023/02/14 16:07:38;;;;;;;;;;;;;;;;;;5004250;28;5931;-57
2023/02/14 16:10:20;;;;;;;;;;;;;;;;;;4986406;28;5082;-53
2023/02/14 16:13:07;;;;;;;;;;;;;;;;;;5004507;28;3625;-55
2023/02/14 16:15:33;;;;;;;;;;;;;;;;;;5000573;28;4493;-57
2023/02/14 16:17:59;;;;;;;;;;;;;;;;;;4989783;28;4926;-56
2023/02/14 16:20:29;;;;;;;;;;;;;;;;;;4999500;28;5123;-57
2023/02/14 16:23:13;;;;;;;;;;;;;;;;;;5000436;28;5250;-57
2023/02/14 16:25:39;;;;;;;;;;;;;;;;;;5001986;28;5504;-58
2023/02/14 16:28:05;;;;;;;;;;;;;;;;;;4999233;28;5280;-56
2023/02/14 16:30:30;;;;;;;;;;;;;;;;;;5004215;28;3544;-56
2023/02/14 16:32:56;;;;;;;;;;;;;;;;;;5008177;28;5107;-57
2023/02/14 16:35:21;;;;;;;;;;;;;;;;;;4996741;28;4495;-53
2023/02/14 16:37:46;;;;;;;;;;;;;;;;;;5001472;28;5187;-55
2023/02/14 16:40:12;;;;;;;;;;;;;;;;;;4998340;28;5826;-56
2023/02/14 16:42:40;;;;;;;;;;;;;;;;;;4987854;28;3435;-57
2023/02/14 16:45:06;;;;;;;;;;;;;;;;;;5004676;28;5050;-56
2023/02/14 16:47:31;;;;;;;;;;;;;;;;;;4999557;28;5068;-56
2023/02/14 16:49:56;;;;;;;;;;;;;;;;;;5002826;28;5225;-56
2023/02/14 16:52:25;;;;;;;;;;;;;;;;;;4999259;28;4501;-56
2023/02/14 16:54:50;;;;;;;;;;;;;;;;;;5002059;28;1401;-57
2023/02/14 16:57:29;;;;;;;;;;;;;;;;;;4989549;28;4526;-55
2023/02/14 16:59:54;;;;;;;;;;;;;;;;;;5014172;28;5094;-56
2023/02/14 17:02:20;;;;;;;;;;;;;;;;;;4997699;28;5136;-55
2023/02/14 17:04:45;;;;;;;;;;;;;;;;;;5003108;28;5101;-56
2023/02/14 17:07:10;;;;;;;;;;;;;;;;;;4998051;28;4745;-56
2023/02/14 17:09:38;;;;;;;;;;;;;;;;;;5000448;28;3646;-56
2023/02/14 17:12:04;;;;;;;;;;;;;;;;;;5001153;28;5042;-65
2023/02/14 17:14:31;;;;;;;;;;;;;;;;;;4986343;28;5226;-63
2023/02/14 17:16:56;;;;;;;;;;;;;;;;;;4998894;28;4759;-61
2023/02/14 17:19:21;;;;;;;;;;;;;;;;;;4996124;28;4681;-62
2023/02/14 17:21:47;;;;;;;;;;;;;;;;;;5002148;28;3577;-62
2023/02/14 17:24:12;;;;;;;;;;;;;;;;;;5003206;28;5085;-61
2023/02/14 17:26:38;;;;;;;;;;;;;;;;;;5003003;28;5023;-63